sensor_id;sensor_type;location;lat;lon;timestamp;temperature;humidity
43842;DHT22;29495;49.970;20.842;2022-08-25T00:01:34;19.30;99.90
43842;DHT22;29495;49.970;20.842;2022-08-25T00:04:02;19.30;99.90
43842;DHT22;29495;49.970;20.842;2022-08-25T00:06:29;19.40;99.90
43842;DHT22;29495;49.970;20.842;2022-08-25T00:08:56;19.30;99.90
43842;DHT22;29495;49.970;20.842;2022-08-25T00:11:27;19.10;99.90
43842;DHT22;29495;49.970;20.842;2022-08-25T00:13:57;19.00;99.90
43842;DHT22;29495;49.970;20.842;2022-08-25T00:16:24;19.30;99.90
43842;DHT22;29495;49.970;20.842;2022-08-25T00:18:53;19.30;99.90
43842;DHT22;29495;49.970;20.842;2022-08-25T00:21:20;19.20;99.90
43842;DHT22;29495;49.970;20.842;2022-08-25T00:23:46;19.10;99.90
43842;DHT22;29495;49.970;20.842;2022-08-25T00:26:13;19.10;99.90
43842;DHT22;29495;49.970;20.842;2022-08-25T00:28:40;19.10;99.90
43842;DHT22;29495;49.970;20.842;2022-08-25T00:31:10;19.10;99.90
43842;DHT22;29495;49.970;20.842;2022-08-25T00:33:37;19.20;99.90
43842;DHT22;29495;49.970;20.842;2022-08-25T00:36:03;19.10;99.90
43842;DHT22;29495;49.970;20.842;2022-08-25T00:38:30;19.10;99.90
43842;DHT22;29495;49.970;20.842;2022-08-25T00:40:56;19.10;99.90
43842;DHT22;29495;49.970;20.842;2022-08-25T00:45:59;19.10;99.90
43842;DHT22;29495;49.970;20.842;2022-08-25T00:48:24;19.00;99.90
43842;DHT22;29495;49.970;20.842;2022-08-25T00:50:50;19.00;99.90
43842;DHT22;29495;49.970;20.842;2022-08-25T00:53:16;18.80;99.90
43842;DHT22;29495;49.970;20.842;2022-08-25T00:55:43;18.90;99.90
43842;DHT22;29495;49.970;20.842;2022-08-25T00:58:18;18.80;99.90
43842;DHT22;29495;49.970;20.842;2022-08-25T01:00:48;18.80;99.90
43842;DHT22;29495;49.970;20.842;2022-08-25T01:03:14;18.90;99.90
43842;DHT22;29495;49.970;20.842;2022-08-25T01:05:42;18.90;99.90
43842;DHT22;29495;49.970;20.842;2022-08-25T01:08:09;18.80;99.90
43842;DHT22;29495;49.970;20.842;2022-08-25T01:10:38;18.80;99.90
43842;DHT22;29495;49.970;20.842;2022-08-25T01:13:31;18.90;99.90
43842;DHT22;29495;49.970;20.842;2022-08-25T01:15:58;18.80;99.90
43842;DHT22;29495;49.970;20.842;2022-08-25T01:18:25;18.80;99.90
43842;DHT22;29495;49.970;20.842;2022-08-25T01:20:56;18.70;99.90
43842;DHT22;29495;49.970;20.842;2022-08-25T01:23:24;18.60;99.90
43842;DHT22;29495;49.970;20.842;2022-08-25T01:25:52;18.70;99.90
43842;DHT22;29495;49.970;20.842;2022-08-25T01:28:21;18.60;99.90
43842;DHT22;29495;49.970;20.842;2022-08-25T01:30:48;18.60;99.90
43842;DHT22;29495;49.970;20.842;2022-08-25T01:33:15;18.50;99.90
43842;DHT22;29495;49.970;20.842;2022-08-25T01:35:44;18.50;99.90
43842;DHT22;29495;49.970;20.842;2022-08-25T01:38:10;18.40;99.90
43842;DHT22;29495;49.970;20.842;2022-08-25T01:40:38;18.60;99.90
43842;DHT22;29495;49.970;20.842;2022-08-25T01:45:44;18.70;99.90
43842;DHT22;29495;49.970;20.842;2022-08-25T01:48:11;18.80;99.90
43842;DHT22;29495;49.970;20.842;2022-08-25T01:50:38;18.70;99.90
43842;DHT22;29495;49.970;20.842;2022-08-25T01:53:22;18.70;99.90
43842;DHT22;29495;49.970;20.842;2022-08-25T01:55:49;18.50;99.90
43842;DHT22;29495;49.970;20.842;2022-08-25T01:58:29;18.50;99.90
43842;DHT22;29495;49.970;20.842;2022-08-25T02:00:57;18.50;99.90
43842;DHT22;29495;49.970;20.842;2022-08-25T02:03:25;18.50;99.90
43842;DHT22;29495;49.970;20.842;2022-08-25T02:05:52;18.50;99.90
43842;DHT22;29495;49.970;20.842;2022-08-25T02:08:18;18.50;99.90
43842;DHT22;29495;49.970;20.842;2022-08-25T02:10:44;18.60;99.90
43842;DHT22;29495;49.970;20.842;2022-08-25T02:13:11;18.70;99.90
43842;DHT22;29495;49.970;20.842;2022-08-25T02:15:42;18.60;99.90
43842;DHT22;29495;49.970;20.842;2022-08-25T02:18:09;18.60;99.90
43842;DHT22;29495;49.970;20.842;2022-08-25T02:20:36;18.50;99.90
43842;DHT22;29495;49.970;20.842;2022-08-25T02:23:02;18.50;99.90
43842;DHT22;29495;49.970;20.842;2022-08-25T02:25:29;18.40;99.90
43842;DHT22;29495;49.970;20.842;2022-08-25T02:27:55;18.40;99.90
43842;DHT22;29495;49.970;20.842;2022-08-25T02:30:21;18.40;99.90
43842;DHT22;29495;49.970;20.842;2022-08-25T02:32:48;18.50;99.90
43842;DHT22;29495;49.970;20.842;2022-08-25T02:35:14;18.50;99.90
43842;DHT22;29495;49.970;20.842;2022-08-25T02:37:40;18.60;99.90
43842;DHT22;29495;49.970;20.842;2022-08-25T02:40:06;18.60;99.90
43842;DHT22;29495;49.970;20.842;2022-08-25T02:42:32;18.30;99.90
43842;DHT22;29495;49.970;20.842;2022-08-25T02:44:58;18.30;99.90
43842;DHT22;29495;49.970;20.842;2022-08-25T02:47:24;18.30;99.90
43842;DHT22;29495;49.970;20.842;2022-08-25T02:49:50;18.40;99.90
43842;DHT22;29495;49.970;20.842;2022-08-25T02:52:17;18.30;99.90
43842;DHT22;29495;49.970;20.842;2022-08-25T02:54:43;18.20;99.90
43842;DHT22;29495;49.970;20.842;2022-08-25T02:57:09;18.10;99.90
43842;DHT22;29495;49.970;20.842;2022-08-25T02:59:37;18.10;99.90
43842;DHT22;29495;49.970;20.842;2022-08-25T03:02:04;18.20;99.90
43842;DHT22;29495;49.970;20.842;2022-08-25T03:04:31;18.20;99.90
43842;DHT22;29495;49.970;20.842;2022-08-25T03:06:57;18.20;99.90
43842;DHT22;29495;49.970;20.842;2022-08-25T03:09:25;18.30;99.90
43842;DHT22;29495;49.970;20.842;2022-08-25T03:11:51;18.40;99.90
43842;DHT22;29495;49.970;20.842;2022-08-25T03:14:17;18.40;99.90
43842;DHT22;29495;49.970;20.842;2022-08-25T03:16:43;18.40;99.90
43842;DHT22;29495;49.970;20.842;2022-08-25T03:19:09;18.20;99.90
43842;DHT22;29495;49.970;20.842;2022-08-25T03:21:36;18.40;99.90
43842;DHT22;29495;49.970;20.842;2022-08-25T03:24:04;18.20;99.90
43842;DHT22;29495;49.970;20.842;2022-08-25T03:26:30;18.10;99.90
43842;DHT22;29495;49.970;20.842;2022-08-25T03:29:16;18.00;99.90
43842;DHT22;29495;49.970;20.842;2022-08-25T03:31:43;17.90;99.90
43842;DHT22;29495;49.970;20.842;2022-08-25T03:34:11;17.80;99.90
43842;DHT22;29495;49.970;20.842;2022-08-25T03:36:37;17.80;99.90
43842;DHT22;29495;49.970;20.842;2022-08-25T03:39:04;17.70;99.90
43842;DHT22;29495;49.970;20.842;2022-08-25T03:41:32;17.80;99.90
43842;DHT22;29495;49.970;20.842;2022-08-25T03:43:59;17.70;99.90
43842;DHT22;29495;49.970;20.842;2022-08-25T03:46:28;17.80;99.90
43842;DHT22;29495;49.970;20.842;2022-08-25T03:48:55;17.90;99.90
43842;DHT22;29495;49.970;20.842;2022-08-25T03:51:31;18.00;99.90
43842;DHT22;29495;49.970;20.842;2022-08-25T03:53:59;18.10;99.90
43842;DHT22;29495;49.970;20.842;2022-08-25T03:56:26;18.20;99.90
43842;DHT22;29495;49.970;20.842;2022-08-25T03:58:53;18.20;99.90
43842;DHT22;29495;49.970;20.842;2022-08-25T04:01:19;18.20;99.90
43842;DHT22;29495;49.970;20.842;2022-08-25T04:03:46;18.20;99.90
43842;DHT22;29495;49.970;20.842;2022-08-25T04:06:12;18.30;99.90
43842;DHT22;29495;49.970;20.842;2022-08-25T04:08:39;18.30;99.90
43842;DHT22;29495;49.970;20.842;2022-08-25T04:11:14;18.30;99.90
43842;DHT22;29495;49.970;20.842;2022-08-25T04:13:41;18.40;99.90
43842;DHT22;29495;49.970;20.842;2022-08-25T04:16:15;18.30;99.90
43842;DHT22;29495;49.970;20.842;2022-08-25T04:18:41;18.30;99.90
43842;DHT22;29495;49.970;20.842;2022-08-25T04:21:08;18.40;99.90
43842;DHT22;29495;49.970;20.842;2022-08-25T04:23:37;18.40;99.90
43842;DHT22;29495;49.970;20.842;2022-08-25T04:26:11;18.60;99.90
43842;DHT22;29495;49.970;20.842;2022-08-25T04:28:37;18.70;99.90
43842;DHT22;29495;49.970;20.842;2022-08-25T04:31:08;18.60;99.90
43842;DHT22;29495;49.970;20.842;2022-08-25T04:33:35;18.80;99.90
43842;DHT22;29495;49.970;20.842;2022-08-25T04:36:02;18.90;99.90
43842;DHT22;29495;49.970;20.842;2022-08-25T04:38:28;19.00;99.90
43842;DHT22;29495;49.970;20.842;2022-08-25T04:41:00;19.10;99.90
43842;DHT22;29495;49.970;20.842;2022-08-25T04:43:26;19.20;99.90
43842;DHT22;29495;49.970;20.842;2022-08-25T04:45:52;19.30;99.90
43842;DHT22;29495;49.970;20.842;2022-08-25T04:48:18;19.30;99.90
43842;DHT22;29495;49.970;20.842;2022-08-25T04:50:45;19.30;99.90
43842;DHT22;29495;49.970;20.842;2022-08-25T04:53:11;19.40;99.90
43842;DHT22;29495;49.970;20.842;2022-08-25T04:55:41;19.50;99.90
43842;DHT22;29495;49.970;20.842;2022-08-25T04:58:08;19.70;99.90
43842;DHT22;29495;49.970;20.842;2022-08-25T05:00:35;19.90;99.90
43842;DHT22;29495;49.970;20.842;2022-08-25T05:03:08;20.00;99.90
43842;DHT22;29495;49.970;20.842;2022-08-25T05:05:37;20.20;99.90
43842;DHT22;29495;49.970;20.842;2022-08-25T05:08:05;20.50;99.90
43842;DHT22;29495;49.970;20.842;2022-08-25T05:10:32;21.20;99.90
43842;DHT22;29495;49.970;20.842;2022-08-25T05:12:58;21.90;99.90
43842;DHT22;29495;49.970;20.842;2022-08-25T05:15:25;22.40;99.90
43842;DHT22;29495;49.970;20.842;2022-08-25T05:18:10;22.60;99.90
43842;DHT22;29495;49.970;20.842;2022-08-25T05:20:36;23.00;99.90
43842;DHT22;29495;49.970;20.842;2022-08-25T05:23:03;23.30;99.90
43842;DHT22;29495;49.970;20.842;2022-08-25T05:25:30;24.40;99.90
43842;DHT22;29495;49.970;20.842;2022-08-25T05:27:56;24.50;99.90
43842;DHT22;29495;49.970;20.842;2022-08-25T05:30:22;25.10;99.90
43842;DHT22;29495;49.970;20.842;2022-08-25T05:32:49;25.30;99.90
43842;DHT22;29495;49.970;20.842;2022-08-25T05:35:15;25.80;99.90
43842;DHT22;29495;49.970;20.842;2022-08-25T05:37:41;26.20;99.90
43842;DHT22;29495;49.970;20.842;2022-08-25T05:40:08;26.50;99.90
43842;DHT22;29495;49.970;20.842;2022-08-25T05:42:34;27.10;99.90
43842;DHT22;29495;49.970;20.842;2022-08-25T05:45:03;26.90;99.90
43842;DHT22;29495;49.970;20.842;2022-08-25T05:47:29;27.80;99.90
43842;DHT22;29495;49.970;20.842;2022-08-25T05:49:55;27.30;99.90
43842;DHT22;29495;49.970;20.842;2022-08-25T05:52:21;27.60;99.90
43842;DHT22;29495;49.970;20.842;2022-08-25T05:54:47;27.80;99.90
43842;DHT22;29495;49.970;20.842;2022-08-25T05:57:13;28.00;99.90
43842;DHT22;29495;49.970;20.842;2022-08-25T05:59:39;28.20;99.90
43842;DHT22;29495;49.970;20.842;2022-08-25T06:02:05;28.00;99.90
43842;DHT22;29495;49.970;20.842;2022-08-25T06:04:50;28.00;99.90
43842;DHT22;29495;49.970;20.842;2022-08-25T06:07:16;29.30;99.90
43842;DHT22;29495;49.970;20.842;2022-08-25T06:09:42;29.90;99.90
43842;DHT22;29495;49.970;20.842;2022-08-25T06:12:10;30.60;98.00
43842;DHT22;29495;49.970;20.842;2022-08-25T06:14:37;30.70;95.70
43842;DHT22;29495;49.970;20.842;2022-08-25T06:17:03;30.60;95.80
43842;DHT22;29495;49.970;20.842;2022-08-25T06:19:29;30.50;93.90
43842;DHT22;29495;49.970;20.842;2022-08-25T06:21:57;30.80;95.40
43842;DHT22;29495;49.970;20.842;2022-08-25T06:24:24;30.30;97.80
43842;DHT22;29495;49.970;20.842;2022-08-25T06:26:51;30.80;94.50
43842;DHT22;29495;49.970;20.842;2022-08-25T06:29:18;31.80;93.20
43842;DHT22;29495;49.970;20.842;2022-08-25T06:31:44;31.80;91.20
43842;DHT22;29495;49.970;20.842;2022-08-25T06:34:11;32.40;88.80
43842;DHT22;29495;49.970;20.842;2022-08-25T06:36:38;32.20;87.80
43842;DHT22;29495;49.970;20.842;2022-08-25T06:39:04;31.60;86.60
43842;DHT22;29495;49.970;20.842;2022-08-25T06:41:31;31.70;88.30
43842;DHT22;29495;49.970;20.842;2022-08-25T06:43:57;31.80;87.50
43842;DHT22;29495;49.970;20.842;2022-08-25T06:46:25;32.00;90.20
43842;DHT22;29495;49.970;20.842;2022-08-25T06:48:52;31.90;87.80
43842;DHT22;29495;49.970;20.842;2022-08-25T06:51:19;31.30;91.60
43842;DHT22;29495;49.970;20.842;2022-08-25T06:53:47;31.50;92.30
43842;DHT22;29495;49.970;20.842;2022-08-25T06:56:15;31.30;91.40
43842;DHT22;29495;49.970;20.842;2022-08-25T06:58:41;31.80;90.10
43842;DHT22;29495;49.970;20.842;2022-08-25T07:01:22;31.70;90.90
43842;DHT22;29495;49.970;20.842;2022-08-25T07:03:51;31.40;91.40
43842;DHT22;29495;49.970;20.842;2022-08-25T07:06:17;30.10;94.40
43842;DHT22;29495;49.970;20.842;2022-08-25T07:08:44;29.50;97.20
43842;DHT22;29495;49.970;20.842;2022-08-25T07:11:11;29.80;96.60
43842;DHT22;29495;49.970;20.842;2022-08-25T07:13:37;29.70;98.60
43842;DHT22;29495;49.970;20.842;2022-08-25T07:16:04;29.50;97.50
43842;DHT22;29495;49.970;20.842;2022-08-25T07:18:31;29.70;98.60
43842;DHT22;29495;49.970;20.842;2022-08-25T07:20:58;30.20;98.30
43842;DHT22;29495;49.970;20.842;2022-08-25T07:23:24;30.80;96.70
43842;DHT22;29495;49.970;20.842;2022-08-25T07:25:51;30.80;98.30
43842;DHT22;29495;49.970;20.842;2022-08-25T07:28:18;32.10;93.40
43842;DHT22;29495;49.970;20.842;2022-08-25T07:30:45;31.60;92.80
43842;DHT22;29495;49.970;20.842;2022-08-25T07:33:11;31.80;92.40
43842;DHT22;29495;49.970;20.842;2022-08-25T07:35:37;31.60;93.30
43842;DHT22;29495;49.970;20.842;2022-08-25T07:38:05;30.70;94.60
43842;DHT22;29495;49.970;20.842;2022-08-25T07:40:34;31.00;95.20
43842;DHT22;29495;49.970;20.842;2022-08-25T07:43:04;31.40;94.10
43842;DHT22;29495;49.970;20.842;2022-08-25T07:45:32;31.40;93.00
43842;DHT22;29495;49.970;20.842;2022-08-25T07:48:05;30.50;96.80
43842;DHT22;29495;49.970;20.842;2022-08-25T07:50:32;29.60;97.60
43842;DHT22;29495;49.970;20.842;2022-08-25T07:52:58;29.40;99.90
43842;DHT22;29495;49.970;20.842;2022-08-25T07:55:26;29.10;99.90
43842;DHT22;29495;49.970;20.842;2022-08-25T07:57:54;29.10;99.90
43842;DHT22;29495;49.970;20.842;2022-08-25T08:00:20;28.90;99.90
43842;DHT22;29495;49.970;20.842;2022-08-25T08:02:46;28.60;99.90
43842;DHT22;29495;49.970;20.842;2022-08-25T08:05:13;28.90;99.90
43842;DHT22;29495;49.970;20.842;2022-08-25T08:07:40;28.90;99.90
43842;DHT22;29495;49.970;20.842;2022-08-25T08:10:08;28.10;99.90
43842;DHT22;29495;49.970;20.842;2022-08-25T08:12:35;28.40;99.90
43842;DHT22;29495;49.970;20.842;2022-08-25T08:15:01;27.90;99.90
43842;DHT22;29495;49.970;20.842;2022-08-25T08:17:29;27.90;99.90
43842;DHT22;29495;49.970;20.842;2022-08-25T08:19:57;28.00;99.90
43842;DHT22;29495;49.970;20.842;2022-08-25T08:22:23;28.40;99.90
43842;DHT22;29495;49.970;20.842;2022-08-25T08:24:49;28.30;99.90
43842;DHT22;29495;49.970;20.842;2022-08-25T08:27:15;28.70;99.90
43842;DHT22;29495;49.970;20.842;2022-08-25T08:29:41;29.00;99.90
43842;DHT22;29495;49.970;20.842;2022-08-25T08:32:10;29.00;99.90
43842;DHT22;29495;49.970;20.842;2022-08-25T08:34:39;29.00;99.90
43842;DHT22;29495;49.970;20.842;2022-08-25T08:37:08;29.10;99.90
43842;DHT22;29495;49.970;20.842;2022-08-25T08:39:35;29.00;99.90
43842;DHT22;29495;49.970;20.842;2022-08-25T08:55:39;29.40;99.90
43842;DHT22;29495;49.970;20.842;2022-08-25T08:58:10;29.10;99.90
43842;DHT22;29495;49.970;20.842;2022-08-25T09:00:46;29.20;99.90
43842;DHT22;29495;49.970;20.842;2022-08-25T09:03:33;29.50;99.90
43842;DHT22;29495;49.970;20.842;2022-08-25T09:06:23;29.30;99.90
43842;DHT22;29495;49.970;20.842;2022-08-25T09:08:51;29.50;99.90
43842;DHT22;29495;49.970;20.842;2022-08-25T09:16:56;29.50;99.90
43842;DHT22;29495;49.970;20.842;2022-08-25T09:30:23;29.60;99.90
43842;DHT22;29495;49.970;20.842;2022-08-25T09:32:52;29.60;99.90
43842;DHT22;29495;49.970;20.842;2022-08-25T09:35:24;29.50;99.90
43842;DHT22;29495;49.970;20.842;2022-08-25T09:37:58;29.50;99.90
43842;DHT22;29495;49.970;20.842;2022-08-25T09:40:27;29.60;99.90
43842;DHT22;29495;49.970;20.842;2022-08-25T09:42:58;29.30;99.90
43842;DHT22;29495;49.970;20.842;2022-08-25T09:45:42;29.10;99.90
43842;DHT22;29495;49.970;20.842;2022-08-25T09:48:24;29.30;99.90
43842;DHT22;29495;49.970;20.842;2022-08-25T09:50:53;29.30;99.90
43842;DHT22;29495;49.970;20.842;2022-08-25T09:53:22;29.10;99.90
43842;DHT22;29495;49.970;20.842;2022-08-25T09:55:59;28.80;99.90
43842;DHT22;29495;49.970;20.842;2022-08-25T09:58:29;28.90;99.90
43842;DHT22;29495;49.970;20.842;2022-08-25T10:01:12;29.30;99.90
43842;DHT22;29495;49.970;20.842;2022-08-25T10:04:02;29.30;99.90
43842;DHT22;29495;49.970;20.842;2022-08-25T10:06:34;29.20;99.90
43842;DHT22;29495;49.970;20.842;2022-08-25T10:09:06;29.20;99.90
43842;DHT22;29495;49.970;20.842;2022-08-25T10:11:43;29.30;99.90
43842;DHT22;29495;49.970;20.842;2022-08-25T10:16:40;29.70;99.90
43842;DHT22;29495;49.970;20.842;2022-08-25T10:19:10;29.80;99.90
43842;DHT22;29495;49.970;20.842;2022-08-25T10:21:39;29.90;99.90
43842;DHT22;29495;49.970;20.842;2022-08-25T10:24:08;29.80;99.90
43842;DHT22;29495;49.970;20.842;2022-08-25T10:30:06;29.60;99.90
43842;DHT22;29495;49.970;20.842;2022-08-25T10:35:12;30.10;99.90
43842;DHT22;29495;49.970;20.842;2022-08-25T10:40:27;29.80;99.90
43842;DHT22;29495;49.970;20.842;2022-08-25T10:42:59;30.00;99.90
43842;DHT22;29495;49.970;20.842;2022-08-25T10:45:41;30.30;99.90
43842;DHT22;29495;49.970;20.842;2022-08-25T10:53:54;30.60;99.90
43842;DHT22;29495;49.970;20.842;2022-08-25T10:56:26;30.40;99.90
43842;DHT22;29495;49.970;20.842;2022-08-25T11:02:01;30.60;99.90
43842;DHT22;29495;49.970;20.842;2022-08-25T11:05:09;30.60;99.90
43842;DHT22;29495;49.970;20.842;2022-08-25T11:07:44;30.70;99.90
43842;DHT22;29495;49.970;20.842;2022-08-25T11:10:25;30.80;99.90
43842;DHT22;29495;49.970;20.842;2022-08-25T11:12:56;30.60;99.90
43842;DHT22;29495;49.970;20.842;2022-08-25T11:15:30;30.80;99.90
43842;DHT22;29495;49.970;20.842;2022-08-25T11:18:10;30.80;99.90
43842;DHT22;29495;49.970;20.842;2022-08-25T11:26:08;31.10;99.90
43842;DHT22;29495;49.970;20.842;2022-08-25T11:31:51;31.20;99.90
43842;DHT22;29495;49.970;20.842;2022-08-25T11:34:18;31.30;99.90
43842;DHT22;29495;49.970;20.842;2022-08-25T11:37:10;31.50;99.90
43842;DHT22;29495;49.970;20.842;2022-08-25T11:42:47;31.40;99.90
43842;DHT22;29495;49.970;20.842;2022-08-25T11:45:53;31.50;99.90
43842;DHT22;29495;49.970;20.842;2022-08-25T11:48:51;31.50;99.90
43842;DHT22;29495;49.970;20.842;2022-08-25T11:51:31;31.70;99.90
43842;DHT22;29495;49.970;20.842;2022-08-25T11:56:57;31.50;99.90
43842;DHT22;29495;49.970;20.842;2022-08-25T12:02:48;31.80;99.90
43842;DHT22;29495;49.970;20.842;2022-08-25T12:13:42;32.20;99.00
43842;DHT22;29495;49.970;20.842;2022-08-25T12:16:36;32.30;99.90
43842;DHT22;29495;49.970;20.842;2022-08-25T12:21:47;32.10;98.20
43842;DHT22;29495;49.970;20.842;2022-08-25T12:24:15;31.90;99.10
43842;DHT22;29495;49.970;20.842;2022-08-25T12:42:36;31.90;96.50
43842;DHT22;29495;49.970;20.842;2022-08-25T12:47:52;32.10;96.90
43842;DHT22;29495;49.970;20.842;2022-08-25T12:52:54;32.20;97.90
43842;DHT22;29495;49.970;20.842;2022-08-25T12:55:21;32.10;95.40
43842;DHT22;29495;49.970;20.842;2022-08-25T12:57:55;32.00;96.00
43842;DHT22;29495;49.970;20.842;2022-08-25T13:00:31;31.90;94.70
43842;DHT22;29495;49.970;20.842;2022-08-25T13:11:16;32.00;91.80
43842;DHT22;29495;49.970;20.842;2022-08-25T13:13:48;32.20;87.50
43842;DHT22;29495;49.970;20.842;2022-08-25T13:16:27;31.90;83.10
43842;DHT22;29495;49.970;20.842;2022-08-25T13:18:54;32.00;81.40
43842;DHT22;29495;49.970;20.842;2022-08-25T13:23:59;31.80;78.90
43842;DHT22;29495;49.970;20.842;2022-08-25T13:26:32;31.90;80.10
43842;DHT22;29495;49.970;20.842;2022-08-25T13:29:23;31.80;77.30
43842;DHT22;29495;49.970;20.842;2022-08-25T13:34:25;32.10;77.80
43842;DHT22;29495;49.970;20.842;2022-08-25T13:36:52;32.30;79.40
43842;DHT22;29495;49.970;20.842;2022-08-25T13:39:37;32.40;81.60
43842;DHT22;29495;49.970;20.842;2022-08-25T13:42:06;32.40;80.70
43842;DHT22;29495;49.970;20.842;2022-08-25T13:44:36;32.10;73.50
43842;DHT22;29495;49.970;20.842;2022-08-25T13:47:15;32.00;75.90
43842;DHT22;29495;49.970;20.842;2022-08-25T13:49:44;32.00;74.70
43842;DHT22;29495;49.970;20.842;2022-08-25T13:52:25;31.90;73.40
43842;DHT22;29495;49.970;20.842;2022-08-25T13:54:59;31.80;75.80
43842;DHT22;29495;49.970;20.842;2022-08-25T13:57:27;31.80;74.90
43842;DHT22;29495;49.970;20.842;2022-08-25T13:59:59;32.00;77.10
43842;DHT22;29495;49.970;20.842;2022-08-25T14:02:58;31.80;73.10
43842;DHT22;29495;49.970;20.842;2022-08-25T14:08:00;32.40;72.10
43842;DHT22;29495;49.970;20.842;2022-08-25T14:10:40;32.30;71.70
43842;DHT22;29495;49.970;20.842;2022-08-25T14:13:16;32.20;75.70
43842;DHT22;29495;49.970;20.842;2022-08-25T14:15:53;32.20;73.70
43842;DHT22;29495;49.970;20.842;2022-08-25T14:18:22;32.10;75.40
43842;DHT22;29495;49.970;20.842;2022-08-25T14:20:53;31.90;72.30
43842;DHT22;29495;49.970;20.842;2022-08-25T14:23:24;31.80;71.10
43842;DHT22;29495;49.970;20.842;2022-08-25T14:25:54;31.90;72.80
43842;DHT22;29495;49.970;20.842;2022-08-25T14:28:26;31.90;70.80
43842;DHT22;29495;49.970;20.842;2022-08-25T14:30:58;31.80;71.40
43842;DHT22;29495;49.970;20.842;2022-08-25T14:33:29;31.60;73.10
43842;DHT22;29495;49.970;20.842;2022-08-25T14:35:58;31.80;73.20
43842;DHT22;29495;49.970;20.842;2022-08-25T14:38:27;32.00;73.00
43842;DHT22;29495;49.970;20.842;2022-08-25T14:40:53;32.00;70.50
43842;DHT22;29495;49.970;20.842;2022-08-25T14:43:19;32.10;70.40
43842;DHT22;29495;49.970;20.842;2022-08-25T14:45:47;32.00;71.20
43842;DHT22;29495;49.970;20.842;2022-08-25T14:48:19;31.90;68.40
43842;DHT22;29495;49.970;20.842;2022-08-25T14:50:49;31.90;69.60
43842;DHT22;29495;49.970;20.842;2022-08-25T14:53:16;32.00;73.00
43842;DHT22;29495;49.970;20.842;2022-08-25T14:55:41;32.20;75.70
43842;DHT22;29495;49.970;20.842;2022-08-25T14:58:07;32.30;77.60
43842;DHT22;29495;49.970;20.842;2022-08-25T15:00:36;32.00;72.50
43842;DHT22;29495;49.970;20.842;2022-08-25T15:03:05;32.10;74.80
43842;DHT22;29495;49.970;20.842;2022-08-25T15:05:30;32.10;73.10
43842;DHT22;29495;49.970;20.842;2022-08-25T15:07:56;32.20;75.40
43842;DHT22;29495;49.970;20.842;2022-08-25T15:10:41;32.20;73.40
43842;DHT22;29495;49.970;20.842;2022-08-25T15:13:07;32.20;72.50
43842;DHT22;29495;49.970;20.842;2022-08-25T15:15:37;32.20;73.50
43842;DHT22;29495;49.970;20.842;2022-08-25T15:18:03;32.00;69.20
43842;DHT22;29495;49.970;20.842;2022-08-25T15:20:29;32.00;73.60
43842;DHT22;29495;49.970;20.842;2022-08-25T15:22:55;32.20;73.10
43842;DHT22;29495;49.970;20.842;2022-08-25T15:25:23;32.00;69.00
43842;DHT22;29495;49.970;20.842;2022-08-25T15:27:49;31.80;71.90
43842;DHT22;29495;49.970;20.842;2022-08-25T15:30:15;31.80;72.10
43842;DHT22;29495;49.970;20.842;2022-08-25T15:32:41;31.70;72.30
43842;DHT22;29495;49.970;20.842;2022-08-25T15:35:08;31.70;75.80
43842;DHT22;29495;49.970;20.842;2022-08-25T15:37:34;31.60;74.10
43842;DHT22;29495;49.970;20.842;2022-08-25T15:40:00;31.50;71.60
43842;DHT22;29495;49.970;20.842;2022-08-25T15:42:27;31.40;71.90
43842;DHT22;29495;49.970;20.842;2022-08-25T15:44:53;31.40;71.20
43842;DHT22;29495;49.970;20.842;2022-08-25T15:47:22;31.30;70.50
43842;DHT22;29495;49.970;20.842;2022-08-25T15:49:49;31.30;70.70
43842;DHT22;29495;49.970;20.842;2022-08-25T15:52:16;31.20;69.10
43842;DHT22;29495;49.970;20.842;2022-08-25T15:54:42;31.20;69.20
43842;DHT22;29495;49.970;20.842;2022-08-25T15:57:08;31.00;68.90
43842;DHT22;29495;49.970;20.842;2022-08-25T15:59:34;30.90;72.60
43842;DHT22;29495;49.970;20.842;2022-08-25T16:02:00;30.80;70.90
43842;DHT22;29495;49.970;20.842;2022-08-25T16:04:27;30.80;72.30
43842;DHT22;29495;49.970;20.842;2022-08-25T16:06:54;30.70;70.00
43842;DHT22;29495;49.970;20.842;2022-08-25T16:09:20;30.60;73.80
43842;DHT22;29495;49.970;20.842;2022-08-25T16:11:46;30.50;73.30
43842;DHT22;29495;49.970;20.842;2022-08-25T16:14:13;30.30;71.90
43842;DHT22;29495;49.970;20.842;2022-08-25T16:16:39;30.40;78.60
43842;DHT22;29495;49.970;20.842;2022-08-25T16:19:06;30.40;70.30
43842;DHT22;29495;49.970;20.842;2022-08-25T16:21:33;30.20;70.80
43842;DHT22;29495;49.970;20.842;2022-08-25T16:24:04;30.30;71.20
43842;DHT22;29495;49.970;20.842;2022-08-25T16:26:30;30.10;71.40
43842;DHT22;29495;49.970;20.842;2022-08-25T16:28:57;30.10;75.60
43842;DHT22;29495;49.970;20.842;2022-08-25T16:31:23;30.10;72.20
43842;DHT22;29495;49.970;20.842;2022-08-25T16:33:49;30.00;73.50
43842;DHT22;29495;49.970;20.842;2022-08-25T16:36:18;30.00;77.20
43842;DHT22;29495;49.970;20.842;2022-08-25T16:38:45;29.90;76.40
43842;DHT22;29495;49.970;20.842;2022-08-25T16:41:23;29.80;80.20
43842;DHT22;29495;49.970;20.842;2022-08-25T16:43:50;29.60;84.50
43842;DHT22;29495;49.970;20.842;2022-08-25T16:46:18;29.60;83.60
43842;DHT22;29495;49.970;20.842;2022-08-25T16:48:45;29.40;85.50
43842;DHT22;29495;49.970;20.842;2022-08-25T16:51:14;29.20;91.50
43842;DHT22;29495;49.970;20.842;2022-08-25T16:53:40;29.10;92.50
43842;DHT22;29495;49.970;20.842;2022-08-25T16:56:25;28.90;94.60
43842;DHT22;29495;49.970;20.842;2022-08-25T16:58:59;28.80;97.10
43842;DHT22;29495;49.970;20.842;2022-08-25T17:01:27;28.60;98.60
43842;DHT22;29495;49.970;20.842;2022-08-25T17:03:56;28.50;98.60
43842;DHT22;29495;49.970;20.842;2022-08-25T17:06:24;28.30;97.60
43842;DHT22;29495;49.970;20.842;2022-08-25T17:08:51;28.00;98.70
43842;DHT22;29495;49.970;20.842;2022-08-25T17:11:19;27.90;98.60
43842;DHT22;29495;49.970;20.842;2022-08-25T17:13:51;27.80;99.30
43842;DHT22;29495;49.970;20.842;2022-08-25T17:16:19;27.40;99.90
43842;DHT22;29495;49.970;20.842;2022-08-25T17:18:46;27.30;99.90
43842;DHT22;29495;49.970;20.842;2022-08-25T17:21:16;27.20;99.90
43842;DHT22;29495;49.970;20.842;2022-08-25T17:23:43;27.10;99.90
43842;DHT22;29495;49.970;20.842;2022-08-25T17:26:12;27.00;99.90
43842;DHT22;29495;49.970;20.842;2022-08-25T17:28:39;26.80;99.90
43842;DHT22;29495;49.970;20.842;2022-08-25T17:31:08;26.60;99.90